createdAt,value
2022-12-03T00:01:14.302Z,66.20
2022-12-03T00:03:41.013Z,63.22
2022-12-03T00:06:07.922Z,67.18
2022-12-03T00:08:35.041Z,65.88
2022-12-03T00:11:01.550Z,60.63
2022-12-03T00:13:28.080Z,69.45
2022-12-03T00:15:54.837Z,69.95
2022-12-03T00:18:21.425Z,67.63
2022-12-03T00:20:47.994Z,69.70
2022-12-03T00:23:14.563Z,64.72
2022-12-03T00:25:41.108Z,62.28
2022-12-03T00:28:07.743Z,66.90
2022-12-03T00:30:34.343Z,63.97
2022-12-03T00:33:00.829Z,63.65
2022-12-03T00:35:27.370Z,59.55
2022-12-03T00:37:54.800Z,57.67
2022-12-03T00:40:21.410Z,59.10
2022-12-03T00:42:47.933Z,60.67
2022-12-03T00:45:14.526Z,61.47
2022-12-03T00:47:41.014Z,54.47
2022-12-03T00:50:08.335Z,63.30
2022-12-03T00:52:34.934Z,59.42
2022-12-03T00:55:01.505Z,56.08
2022-12-03T00:57:28.164Z,59.47
2022-12-03T00:59:54.754Z,59.50
2022-12-03T01:02:21.616Z,55.17
2022-12-03T01:04:48.377Z,57.22
2022-12-03T01:07:14.957Z,56.05
2022-12-03T01:09:41.432Z,54.90
2022-12-03T01:12:07.908Z,51.90
2022-12-03T01:14:34.457Z,56.90
2022-12-03T01:17:00.996Z,62.40
2022-12-03T01:19:27.592Z,63.42
2022-12-03T01:21:55.509Z,57.38
2022-12-03T01:24:22.486Z,56.70
2022-12-03T01:26:49.024Z,59.33
2022-12-03T01:29:15.726Z,55.30
2022-12-03T01:32:01.124Z,59.63
2022-12-03T01:34:27.679Z,50.10
2022-12-03T01:36:54.227Z,54.83
2022-12-03T01:39:20.958Z,51.08
2022-12-03T01:41:49.606Z,50.63
2022-12-03T01:44:28.590Z,54.03
2022-12-03T01:46:57.132Z,61.17
2022-12-03T01:49:27.533Z,54.80
2022-12-03T01:51:55.383Z,58.42
2022-12-03T01:54:27.345Z,57.47
2022-12-03T01:56:55.149Z,61.75
2022-12-03T01:59:26.193Z,50.75
2022-12-03T02:01:52.849Z,51.30
2022-12-03T02:04:21.971Z,54.07
2022-12-03T02:06:48.693Z,52.88
2022-12-03T02:09:15.146Z,58.38
2022-12-03T02:11:47.365Z,56.50
2022-12-03T02:14:18.265Z,60.20
2022-12-03T02:16:45.188Z,58.92
2022-12-03T02:19:29.823Z,61.10
2022-12-03T02:22:19.234Z,58.75
2022-12-03T02:25:12.393Z,56.25
2022-12-03T02:27:39.830Z,57.53
2022-12-03T02:30:07.863Z,58.92
2022-12-03T02:32:34.460Z,65.55
2022-12-03T02:35:01.018Z,59.75
2022-12-03T02:37:34.088Z,58.03
2022-12-03T02:40:07.865Z,70.05
2022-12-03T02:42:37.329Z,59.85
2022-12-03T02:45:07.092Z,56.10
2022-12-03T02:47:41.792Z,61.70
2022-12-03T02:50:10.499Z,49.63
2022-12-03T02:52:37.255Z,56.58
2022-12-03T02:55:07.254Z,62.20
2022-12-03T02:57:36.068Z,61.75
2022-12-03T03:00:02.643Z,55.58
2022-12-03T03:02:29.235Z,56.72
2022-12-03T03:04:56.949Z,59.57
2022-12-03T03:09:50.027Z,60.45
2022-12-03T03:12:16.939Z,62.17
2022-12-03T03:14:43.561Z,49.72
2022-12-03T03:17:10.155Z,54.07
2022-12-03T03:19:36.625Z,57.55
2022-12-03T03:22:03.232Z,56.30
2022-12-03T03:24:29.815Z,55.30
2022-12-03T03:26:56.420Z,53.40
2022-12-03T03:29:22.961Z,46.50
2022-12-03T03:31:49.803Z,54.15
2022-12-03T03:34:17.510Z,55.13
2022-12-03T03:36:45.041Z,57.50
2022-12-03T03:39:12.437Z,56.83
2022-12-03T03:41:39.049Z,48.75
2022-12-03T03:44:07.501Z,54.38
2022-12-03T03:46:35.020Z,48.42
2022-12-03T03:49:02.799Z,60.97
2022-12-03T03:51:29.662Z,60.28
2022-12-03T03:53:56.597Z,57.05
2022-12-03T03:56:23.617Z,53.78
2022-12-03T03:58:50.257Z,58.83
2022-12-03T04:01:18.306Z,64.07
2022-12-03T04:03:45.066Z,60.17
2022-12-03T04:06:11.802Z,55.67
2022-12-03T04:08:38.357Z,58.90
2022-12-03T04:11:23.859Z,58.00
2022-12-03T04:13:50.371Z,51.50
2022-12-03T04:16:17.018Z,54.67
2022-12-03T04:18:43.542Z,60.60
2022-12-03T04:21:34.039Z,60.60
2022-12-03T04:24:00.872Z,53.33
2022-12-03T04:26:46.388Z,52.35
2022-12-03T04:29:13.592Z,52.83
2022-12-03T04:31:59.450Z,51.30
2022-12-03T04:34:44.631Z,49.88
2022-12-03T04:37:11.544Z,51.47
2022-12-03T04:39:38.026Z,53.13
2022-12-03T04:42:05.816Z,52.92
2022-12-03T04:44:38.741Z,55.63
2022-12-03T04:47:20.220Z,50.75
2022-12-03T04:49:49.098Z,61.13
2022-12-03T04:52:17.889Z,60.75
2022-12-03T04:54:45.258Z,58.55
2022-12-03T04:57:12.501Z,55.92
2022-12-03T04:59:39.693Z,50.00
2022-12-03T05:02:06.738Z,59.92
2022-12-03T05:04:33.560Z,56.80
2022-12-03T05:07:00.105Z,57.08
2022-12-03T05:09:26.698Z,50.40
2022-12-03T05:11:53.222Z,49.85
2022-12-03T05:14:19.913Z,51.95
2022-12-03T05:16:46.539Z,54.90
2022-12-03T05:19:13.192Z,55.83
2022-12-03T05:21:39.707Z,54.50
2022-12-03T05:24:06.458Z,53.72
2022-12-03T05:26:33.005Z,54.17
2022-12-03T05:28:59.504Z,59.58
2022-12-03T05:31:26.143Z,61.03
2022-12-03T05:33:52.769Z,55.30
2022-12-03T05:36:19.285Z,60.17
2022-12-03T05:38:45.785Z,59.92
2022-12-03T05:41:30.693Z,62.63
2022-12-03T05:43:57.296Z,59.95
2022-12-03T05:46:23.965Z,59.17
2022-12-03T05:48:50.639Z,66.82
2022-12-03T05:51:17.186Z,66.28
2022-12-03T05:53:43.709Z,69.83
2022-12-03T05:56:10.292Z,64.13
2022-12-03T05:58:36.794Z,59.00
2022-12-03T06:01:03.371Z,59.70
2022-12-03T06:03:30.029Z,69.32
2022-12-03T06:05:56.595Z,59.33
2022-12-03T06:08:23.134Z,59.35
2022-12-03T06:10:49.691Z,62.75
2022-12-03T06:13:16.232Z,65.78
2022-12-03T06:15:44.095Z,53.22
2022-12-03T06:18:11.092Z,62.15
2022-12-03T06:20:37.809Z,63.85
2022-12-03T06:23:04.253Z,61.60
2022-12-03T06:25:30.781Z,62.67
2022-12-03T06:27:57.363Z,62.97
2022-12-03T06:30:24.007Z,61.92
2022-12-03T06:32:50.492Z,68.27
2022-12-03T06:35:17.218Z,72.07
2022-12-03T06:37:43.782Z,63.33
2022-12-03T06:40:10.893Z,62.80
2022-12-03T06:42:37.433Z,62.20
2022-12-03T06:45:04.459Z,67.68
2022-12-03T06:47:30.953Z,61.05
2022-12-03T06:49:57.468Z,64.78
2022-12-03T06:52:24.080Z,63.17
2022-12-03T06:54:50.809Z,70.72
2022-12-03T06:57:17.491Z,71.18
2022-12-03T06:59:44.015Z,73.13
2022-12-03T07:02:12.450Z,64.78
2022-12-03T07:04:42.117Z,71.68
2022-12-03T07:07:12.573Z,64.30
2022-12-03T07:09:39.209Z,69.05
2022-12-03T07:12:06.018Z,67.13
2022-12-03T07:14:32.572Z,72.60
2022-12-03T07:16:59.181Z,66.50
2022-12-03T07:19:32.099Z,76.35
2022-12-03T07:21:59.278Z,73.78
2022-12-03T07:24:25.863Z,77.22
2022-12-03T07:26:52.406Z,71.93
2022-12-03T07:29:19.087Z,78.50
2022-12-03T07:31:45.976Z,82.37
2022-12-03T07:34:12.555Z,77.22
2022-12-03T07:36:39.120Z,87.45
2022-12-03T07:39:05.668Z,84.60
2022-12-03T07:41:32.347Z,100.28
2022-12-03T07:43:58.946Z,101.10
2022-12-03T07:46:25.645Z,88.80
2022-12-03T07:48:52.256Z,102.75
2022-12-03T07:51:18.956Z,85.15
2022-12-03T07:53:45.514Z,79.77
2022-12-03T07:56:12.233Z,87.97
2022-12-03T07:58:38.794Z,80.18
2022-12-03T08:01:05.704Z,92.00
2022-12-03T08:03:32.285Z,92.00
2022-12-03T08:05:58.653Z,87.70
2022-12-03T08:08:25.085Z,82.15
2022-12-03T08:10:51.672Z,88.82
2022-12-03T08:13:19.089Z,86.00
2022-12-03T08:15:46.093Z,90.60
2022-12-03T08:18:16.105Z,87.57
2022-12-03T08:20:43.879Z,86.22
2022-12-03T08:23:30.636Z,84.07
2022-12-03T08:26:02.085Z,79.80
2022-12-03T08:28:28.682Z,77.93
2022-12-03T08:31:13.662Z,85.50
2022-12-03T08:33:41.739Z,91.90
2022-12-03T08:36:13.859Z,103.85
2022-12-03T08:38:40.271Z,96.90
2022-12-03T08:41:14.936Z,92.10
2022-12-03T08:43:43.713Z,118.63
2022-12-03T08:46:19.057Z,220.90
2022-12-03T08:48:49.131Z,103.10
2022-12-03T08:51:20.592Z,93.53
2022-12-03T08:53:58.135Z,103.95
2022-12-03T08:56:30.002Z,102.90
2022-12-03T08:59:15.618Z,113.38
2022-12-03T09:01:44.319Z,92.78
2022-12-03T09:04:32.041Z,94.03
2022-12-03T09:06:58.668Z,106.22
2022-12-03T09:09:25.544Z,86.50
2022-12-03T09:11:52.519Z,88.65
2022-12-03T09:14:21.211Z,100.68
2022-12-03T09:16:48.000Z,101.35
2022-12-03T09:19:14.525Z,100.78
2022-12-03T09:21:40.970Z,120.97
2022-12-03T09:24:07.574Z,98.82
2022-12-03T09:26:34.173Z,104.03
2022-12-03T09:29:00.611Z,140.73
2022-12-03T09:31:27.166Z,113.45
2022-12-03T09:33:53.858Z,96.63
2022-12-03T09:36:20.474Z,85.40
2022-12-03T09:38:48.213Z,85.38
2022-12-03T09:41:15.120Z,88.82
2022-12-03T09:46:29.791Z,90.60
2022-12-03T09:48:56.720Z,91.90
2022-12-03T09:51:29.640Z,98.65
2022-12-03T09:53:56.119Z,116.07
2022-12-03T09:56:23.518Z,97.57
2022-12-03T09:58:50.178Z,94.25
2022-12-03T10:01:17.865Z,91.90
2022-12-03T10:03:47.942Z,93.43
2022-12-03T10:06:18.319Z,81.13
2022-12-03T10:08:48.376Z,87.50
2022-12-03T10:11:16.165Z,81.10
2022-12-03T10:13:43.214Z,92.63
2022-12-03T10:16:13.276Z,90.53
2022-12-03T10:18:42.284Z,94.63
2022-12-03T10:21:24.011Z,84.15
2022-12-03T10:24:10.465Z,97.93
2022-12-03T10:26:40.702Z,101.30
2022-12-03T10:29:32.885Z,90.40
2022-12-03T10:32:06.804Z,104.10
2022-12-03T10:34:36.238Z,90.93
2022-12-03T10:37:22.572Z,89.97
2022-12-03T10:40:09.885Z,85.73
2022-12-03T10:45:23.206Z,79.90
2022-12-03T10:48:05.727Z,85.30
2022-12-03T10:50:33.292Z,82.35
2022-12-03T10:52:59.809Z,84.50
2022-12-03T10:55:28.977Z,84.50
2022-12-03T10:57:55.513Z,81.72
2022-12-03T11:00:22.827Z,83.57
2022-12-03T11:02:56.500Z,79.82
2022-12-03T11:05:27.469Z,80.43
2022-12-03T11:07:54.398Z,86.65
2022-12-03T11:10:21.339Z,79.88
2022-12-03T11:13:25.687Z,83.80
2022-12-03T11:15:53.201Z,84.03
2022-12-03T11:18:38.045Z,89.15
2022-12-03T11:21:08.074Z,91.68
2022-12-03T11:23:47.002Z,93.53
2022-12-03T11:26:33.830Z,96.00
2022-12-03T11:29:00.415Z,88.88
2022-12-03T11:31:44.893Z,99.97
2022-12-03T11:34:20.869Z,89.82
2022-12-03T11:37:12.502Z,96.20
2022-12-03T11:39:45.364Z,96.55
2022-12-03T11:42:27.018Z,95.50
2022-12-03T11:45:02.706Z,73.82
2022-12-03T11:47:39.610Z,87.72
2022-12-03T11:50:23.630Z,84.85
2022-12-03T11:52:55.589Z,101.28
2022-12-03T11:55:28.564Z,107.10
2022-12-03T11:58:03.857Z,84.43
2022-12-03T12:00:30.552Z,95.80
2022-12-03T12:02:58.621Z,86.33
2022-12-03T12:05:27.245Z,89.03
2022-12-03T12:07:55.593Z,84.75
2022-12-03T12:10:41.123Z,94.03
2022-12-03T12:13:25.619Z,99.53
2022-12-03T12:15:52.203Z,86.07
2022-12-03T12:18:36.895Z,86.90
2022-12-03T12:21:43.227Z,84.60
2022-12-03T12:24:40.093Z,87.43
2022-12-03T12:27:20.414Z,83.70
2022-12-03T12:29:52.981Z,93.03
2022-12-03T12:32:24.996Z,106.57
2022-12-03T12:34:55.176Z,91.47
2022-12-03T12:37:28.232Z,108.65
2022-12-03T12:39:57.458Z,88.97
2022-12-03T12:42:36.920Z,87.22
2022-12-03T12:45:21.419Z,85.45
2022-12-03T12:48:03.150Z,79.10
2022-12-03T12:50:31.209Z,88.75
2022-12-03T12:53:02.748Z,75.95
2022-12-03T12:55:29.302Z,74.78
2022-12-03T12:58:03.411Z,71.43
2022-12-03T13:00:30.145Z,80.70
2022-12-03T13:03:00.975Z,76.63
2022-12-03T13:05:44.935Z,79.07
2022-12-03T13:08:29.052Z,84.82
2022-12-03T13:10:57.827Z,83.97
2022-12-03T13:13:43.367Z,87.57
2022-12-03T13:16:19.357Z,83.57
2022-12-03T13:18:49.004Z,94.03
2022-12-03T13:21:21.406Z,84.80
2022-12-03T13:23:49.596Z,94.38
2022-12-03T13:26:38.990Z,90.43
2022-12-03T13:29:12.209Z,87.95
2022-12-03T13:31:43.440Z,121.55
2022-12-03T13:34:21.236Z,91.60
2022-12-03T13:39:37.923Z,93.15
2022-12-03T13:42:45.746Z,96.38
2022-12-03T13:45:15.362Z,94.53
2022-12-03T13:47:45.841Z,101.95
2022-12-03T13:50:27.533Z,97.00
2022-12-03T13:52:55.049Z,101.93
2022-12-03T13:55:31.773Z,102.15
2022-12-03T13:57:58.901Z,94.57
2022-12-03T14:00:25.428Z,107.40
2022-12-03T14:02:51.990Z,114.53
2022-12-03T14:05:19.101Z,91.07
2022-12-03T14:07:45.608Z,96.18
2022-12-03T14:10:12.945Z,99.88
2022-12-03T14:12:39.485Z,105.13
2022-12-03T14:15:07.139Z,97.05
2022-12-03T14:17:33.716Z,99.57
2022-12-03T14:20:01.425Z,104.47
2022-12-03T14:24:55.412Z,93.18
2022-12-03T14:27:22.410Z,101.13
2022-12-03T14:29:48.949Z,95.53
2022-12-03T14:32:15.521Z,103.68
2022-12-03T14:34:42.347Z,96.53
2022-12-03T14:37:08.819Z,106.87
2022-12-03T14:39:35.325Z,104.40
2022-12-03T14:42:14.023Z,92.97
2022-12-03T14:44:51.294Z,98.35
2022-12-03T14:47:22.421Z,100.20
2022-12-03T14:49:50.484Z,104.22
2022-12-03T14:52:17.772Z,105.22
2022-12-03T14:54:44.543Z,116.95
2022-12-03T14:57:12.868Z,113.88
2022-12-03T14:59:41.641Z,113.63
2022-12-03T15:02:09.708Z,114.22
2022-12-03T15:04:36.400Z,110.47
2022-12-03T15:07:03.656Z,110.70
2022-12-03T15:09:30.131Z,105.43
2022-12-03T15:11:56.735Z,97.18
2022-12-03T15:14:23.308Z,99.88
2022-12-03T15:16:50.035Z,110.25
2022-12-03T15:19:17.260Z,105.88
2022-12-03T15:21:43.810Z,117.38
2022-12-03T15:24:10.807Z,117.13
2022-12-03T15:26:37.531Z,114.03
2022-12-03T15:29:04.058Z,114.33
2022-12-03T15:31:30.712Z,119.63
2022-12-03T15:33:57.272Z,114.10
2022-12-03T15:36:23.819Z,114.65
2022-12-03T15:38:50.449Z,106.93
2022-12-03T15:41:29.582Z,106.28
2022-12-03T15:43:58.492Z,107.97
2022-12-03T15:46:26.221Z,105.07
2022-12-03T15:48:53.077Z,109.55
2022-12-03T15:51:19.677Z,115.40
2022-12-03T15:53:46.306Z,106.57
2022-12-03T15:56:12.918Z,99.15
2022-12-03T15:58:40.154Z,109.60
2022-12-03T16:01:08.105Z,108.38
2022-12-03T16:03:35.353Z,106.40
2022-12-03T16:06:02.139Z,103.10
2022-12-03T16:08:28.760Z,105.10
2022-12-03T16:10:55.565Z,104.32
2022-12-03T16:13:22.107Z,99.80
2022-12-03T16:15:48.559Z,101.32
2022-12-03T16:18:15.081Z,98.35
2022-12-03T16:20:41.664Z,101.25
2022-12-03T16:23:08.335Z,94.30
2022-12-03T16:25:34.904Z,103.27
2022-12-03T16:28:01.288Z,98.25
2022-12-03T16:30:27.752Z,107.88
2022-12-03T16:32:54.249Z,114.70
2022-12-03T16:35:20.643Z,105.20
2022-12-03T16:37:47.122Z,99.05
2022-12-03T16:40:13.663Z,101.53
2022-12-03T16:42:40.770Z,106.85
2022-12-03T16:45:08.127Z,108.75
2022-12-03T16:47:35.305Z,109.35
2022-12-03T16:50:03.953Z,100.47
2022-12-03T16:52:30.544Z,96.78
2022-12-03T16:54:57.041Z,91.93
2022-12-03T16:57:24.383Z,106.88
2022-12-03T16:59:53.304Z,100.20
2022-12-03T17:02:20.172Z,109.38
2022-12-03T17:04:46.594Z,96.63
2022-12-03T17:07:12.938Z,106.03
2022-12-03T17:09:39.438Z,101.13
2022-12-03T17:12:06.168Z,110.45
2022-12-03T17:14:33.564Z,108.97
2022-12-03T17:17:00.171Z,111.97
2022-12-03T17:19:26.631Z,101.35
2022-12-03T17:21:54.006Z,99.13
2022-12-03T17:24:21.430Z,112.70
2022-12-03T17:26:48.071Z,119.18
2022-12-03T17:29:14.501Z,107.47
2022-12-03T17:31:42.464Z,136.30
2022-12-03T17:34:09.369Z,119.28
2022-12-03T17:36:35.852Z,108.85
2022-12-03T17:39:02.266Z,114.88
2022-12-03T17:41:28.653Z,122.55
2022-12-03T17:43:55.072Z,112.43
2022-12-03T17:46:21.621Z,108.85
2022-12-03T17:48:48.064Z,106.32
2022-12-03T17:51:14.677Z,134.18
2022-12-03T17:53:41.163Z,120.60
2022-12-03T17:56:07.646Z,105.20
2022-12-03T17:58:34.671Z,105.03
2022-12-03T18:01:03.169Z,99.00
2022-12-03T18:03:30.317Z,99.78
2022-12-03T18:05:56.858Z,103.32
2022-12-03T18:08:23.334Z,113.35
2022-12-03T18:10:50.160Z,106.05
2022-12-03T18:13:16.578Z,109.83
2022-12-03T18:15:43.020Z,103.25
2022-12-03T18:18:09.450Z,113.72
2022-12-03T18:20:35.962Z,103.70
2022-12-03T18:23:02.539Z,105.25
2022-12-03T18:25:29.619Z,103.83
2022-12-03T18:27:56.406Z,100.18
2022-12-03T18:30:22.909Z,102.22
2022-12-03T18:32:50.607Z,96.22
2022-12-03T18:37:43.750Z,99.28
2022-12-03T18:40:17.898Z,94.13
2022-12-03T18:42:44.348Z,88.80
2022-12-03T18:45:12.854Z,96.32
2022-12-03T18:47:39.285Z,103.07
2022-12-03T18:50:07.234Z,90.60
2022-12-03T18:52:33.675Z,84.00
2022-12-03T18:55:00.063Z,95.63
2022-12-03T18:57:26.714Z,92.07
2022-12-03T18:59:53.447Z,91.35
2022-12-03T19:03:01.956Z,86.65
2022-12-03T19:05:10.402Z,100.03
2022-12-03T19:07:37.158Z,96.10
2022-12-03T19:10:04.340Z,103.37
2022-12-03T19:12:31.196Z,96.80
2022-12-03T19:14:57.555Z,96.40
2022-12-03T19:17:24.039Z,85.78
2022-12-03T19:19:50.470Z,92.88
2022-12-03T19:22:16.856Z,96.13
2022-12-03T19:24:43.783Z,93.70
2022-12-03T19:27:10.294Z,94.80
2022-12-03T19:29:36.732Z,93.55
2022-12-03T19:32:04.016Z,95.63
2022-12-03T19:34:30.928Z,94.00
2022-12-03T19:36:57.884Z,100.85
2022-12-03T19:39:24.771Z,96.38
2022-12-03T19:41:51.393Z,95.40
2022-12-03T19:44:18.923Z,103.77
2022-12-03T19:46:45.374Z,98.28
2022-12-03T19:49:11.965Z,96.72
2022-12-03T19:51:38.399Z,93.00
2022-12-03T19:54:07.316Z,107.38
2022-12-03T19:56:33.880Z,109.22
2022-12-03T19:59:00.348Z,102.03
2022-12-03T20:01:30.105Z,103.88
2022-12-03T20:03:58.929Z,104.47
2022-12-03T20:06:28.519Z,106.90
2022-12-03T20:08:59.710Z,104.47
2022-12-03T20:11:29.372Z,110.53
2022-12-03T20:13:59.180Z,111.25
2022-12-03T20:16:26.514Z,94.18
2022-12-03T20:18:57.218Z,97.85
2022-12-03T20:21:24.205Z,100.45
2022-12-03T20:23:50.779Z,101.05
2022-12-03T20:26:19.667Z,94.30
2022-12-03T20:28:47.985Z,111.70
2022-12-03T20:31:17.064Z,101.57
2022-12-03T20:33:49.034Z,107.97
2022-12-03T20:36:16.729Z,91.57
2022-12-03T20:41:12.431Z,102.47
2022-12-03T20:43:39.155Z,100.57
2022-12-03T20:46:07.638Z,101.97
2022-12-03T20:48:34.361Z,107.20
2022-12-03T20:51:06.774Z,97.83
2022-12-03T20:53:33.550Z,101.40
2022-12-03T20:56:01.332Z,97.78
2022-12-03T20:58:29.411Z,95.03
2022-12-03T21:00:55.955Z,96.78
2022-12-03T21:03:22.497Z,93.85
2022-12-03T21:05:49.476Z,105.90
2022-12-03T21:08:15.906Z,103.68
2022-12-03T21:10:45.537Z,94.50
2022-12-03T21:13:16.649Z,107.50
2022-12-03T21:15:43.985Z,106.03
2022-12-03T21:18:12.252Z,108.38
2022-12-03T21:20:46.352Z,105.22
2022-12-03T21:23:13.975Z,115.20
2022-12-03T21:28:08.699Z,110.93
2022-12-03T21:30:38.487Z,110.15
2022-12-03T21:33:05.959Z,117.05
2022-12-03T21:35:35.517Z,119.18
2022-12-03T21:38:01.982Z,130.80
2022-12-03T21:40:28.336Z,122.45
2022-12-03T21:42:54.841Z,122.00
2022-12-03T21:45:24.913Z,125.40
2022-12-03T21:47:51.466Z,128.80
2022-12-03T21:50:17.982Z,122.45
2022-12-03T21:52:44.397Z,116.15
2022-12-03T21:55:10.833Z,127.97
2022-12-03T21:57:37.629Z,115.20
2022-12-03T22:00:07.596Z,116.28
2022-12-03T22:02:34.407Z,121.65
2022-12-03T22:05:00.853Z,118.65
2022-12-03T22:07:27.356Z,119.28
2022-12-03T22:09:54.005Z,113.82
2022-12-03T22:12:20.716Z,118.00
2022-12-03T22:14:47.498Z,116.68
2022-12-03T22:17:13.969Z,111.93
2022-12-03T22:19:40.439Z,119.93
2022-12-03T22:22:06.922Z,119.60
2022-12-03T22:24:33.406Z,106.43
2022-12-03T22:26:59.912Z,116.68
2022-12-03T22:29:26.351Z,111.13
2022-12-03T22:31:52.799Z,107.40
2022-12-03T22:34:19.231Z,116.32
2022-12-03T22:36:45.588Z,120.97
2022-12-03T22:39:11.953Z,107.60
2022-12-03T22:41:38.918Z,114.57
2022-12-03T22:44:05.508Z,111.10
2022-12-03T22:46:32.083Z,112.70
2022-12-03T22:49:03.474Z,110.53
2022-12-03T22:51:33.676Z,110.20
2022-12-03T22:54:01.695Z,108.33
2022-12-03T22:56:30.377Z,106.10
2022-12-03T22:58:57.695Z,116.03
2022-12-03T23:01:26.817Z,92.50
2022-12-03T23:03:53.749Z,99.22
2022-12-03T23:06:20.711Z,93.47
2022-12-03T23:08:47.672Z,101.80
2022-12-03T23:11:14.637Z,96.05
2022-12-03T23:13:41.421Z,99.80
2022-12-03T23:16:13.067Z,101.65
2022-12-03T23:18:39.583Z,91.32
2022-12-03T23:21:06.140Z,92.05
2022-12-03T23:23:32.561Z,88.28
2022-12-03T23:26:10.580Z,104.45
2022-12-03T23:28:38.748Z,99.25
2022-12-03T23:31:06.089Z,94.90
2022-12-03T23:33:38.024Z,101.53
2022-12-03T23:36:08.085Z,94.45
2022-12-03T23:38:34.462Z,96.40
2022-12-03T23:41:05.833Z,100.40
2022-12-03T23:43:32.309Z,104.20
2022-12-03T23:46:10.570Z,119.07
2022-12-03T23:48:37.371Z,102.10
2022-12-03T23:51:08.660Z,108.03
2022-12-03T23:53:36.336Z,122.25
2022-12-03T23:56:11.451Z,122.32
2022-12-03T23:58:38.631Z,107.43
